createdAt,value
2023-11-24T00:00:38.040Z,98011.84
2023-11-24T00:03:30.100Z,98016.11
2023-11-24T00:06:02.093Z,98019.71
2023-11-24T00:08:34.122Z,98023.96
2023-11-24T00:11:06.351Z,98022.23
2023-11-24T00:13:38.337Z,98015.03
2023-11-24T00:16:11.229Z,98024.60
2023-11-24T00:18:43.461Z,98023.20
2023-11-24T00:21:16.582Z,98017.05
2023-11-24T00:23:48.708Z,98009.84
2023-11-24T00:26:22.348Z,98018.92
2023-11-24T00:29:02.009Z,98020.28
2023-11-24T00:31:34.240Z,98012.75
2023-11-24T00:34:09.423Z,98005.56
2023-11-24T00:36:41.598Z,98003.86
2023-11-24T00:39:14.589Z,98011.88
2023-11-24T00:41:46.586Z,98015.11
2023-11-24T00:44:18.559Z,98021.74
2023-11-24T00:46:50.541Z,98020.02
2023-11-24T00:49:22.471Z,98022.22
2023-11-24T00:51:54.472Z,98015.86
2023-11-24T00:54:26.602Z,98018.91
2023-11-24T00:56:59.593Z,98032.41
2023-11-24T00:59:32.490Z,98032.73
2023-11-24T01:02:05.802Z,98047.75
2023-11-24T01:04:37.802Z,98056.79
2023-11-24T01:07:09.822Z,98075.41
2023-11-24T01:09:42.795Z,98100.21
2023-11-24T01:12:15.510Z,98141.94
2023-11-24T01:14:47.547Z,98168.62
2023-11-24T01:17:20.264Z,98167.55
2023-11-24T01:19:52.268Z,98182.96
2023-11-24T01:22:26.082Z,98187.62
2023-11-24T01:24:58.183Z,98185.83
2023-11-24T01:27:30.164Z,98185.30
2023-11-24T01:30:02.450Z,98177.48
2023-11-24T01:32:34.438Z,98181.46
2023-11-24T01:35:08.208Z,98177.74
2023-11-24T01:37:40.139Z,98177.83
2023-11-24T01:40:13.936Z,98184.10
2023-11-24T01:42:45.914Z,98193.81
2023-11-24T01:45:18.107Z,98197.86
2023-11-24T01:47:50.130Z,98202.27
2023-11-24T01:50:23.154Z,98195.77
2023-11-24T01:52:55.666Z,98200.55
2023-11-24T01:55:28.103Z,98193.88
2023-11-24T01:58:01.807Z,98165.86
2023-11-24T02:00:34.952Z,98143.65
2023-11-24T02:03:07.166Z,98131.02
2023-11-24T02:05:41.517Z,98125.36
2023-11-24T02:08:13.688Z,98114.41
2023-11-24T02:10:46.095Z,98103.73
2023-11-24T02:13:18.055Z,98097.14
2023-11-24T02:15:50.310Z,98085.92
2023-11-24T02:18:22.595Z,98079.96
2023-11-24T02:20:54.664Z,98080.91
2023-11-24T02:23:26.925Z,98089.98
2023-11-24T02:25:58.889Z,98098.77
2023-11-24T02:28:30.837Z,98091.34
2023-11-24T02:31:04.927Z,98087.45
2023-11-24T02:33:37.063Z,98092.95
2023-11-24T02:36:18.482Z,98099.41
2023-11-24T02:38:51.745Z,98101.04
2023-11-24T02:41:24.064Z,98100.02
2023-11-24T02:43:56.031Z,98084.16
2023-11-24T02:46:28.004Z,98087.42
2023-11-24T02:49:00.070Z,98086.08
2023-11-24T02:51:32.575Z,98091.57
2023-11-24T02:54:04.692Z,98089.06
2023-11-24T02:56:36.626Z,98093.05
2023-11-24T02:59:08.580Z,98086.55
2023-11-24T03:01:42.558Z,98076.80
2023-11-24T03:04:14.689Z,98071.33
2023-11-24T03:06:46.811Z,98076.30
2023-11-24T03:09:23.707Z,98059.57
2023-11-24T03:11:56.260Z,98054.42
2023-11-24T03:14:29.838Z,98050.33
2023-11-24T03:17:02.597Z,98052.70
2023-11-24T03:19:34.634Z,98049.30
2023-11-24T03:22:08.544Z,98045.70
2023-11-24T03:24:40.604Z,98055.09
2023-11-24T03:27:13.662Z,98060.61
2023-11-24T03:29:45.727Z,98051.05
2023-11-24T03:32:17.747Z,98045.23
2023-11-24T03:34:50.894Z,98039.44
2023-11-24T03:37:22.968Z,98045.94
2023-11-24T03:39:55.503Z,98039.63
2023-11-24T03:42:27.665Z,98027.69
2023-11-24T03:44:59.858Z,98021.04
2023-11-24T03:47:32.401Z,98010.92
2023-11-24T03:50:04.842Z,98022.06
2023-11-24T03:52:37.452Z,98030.95
2023-11-24T03:55:13.422Z,98018.64
2023-11-24T03:57:47.646Z,98010.79
2023-11-24T04:00:20.273Z,98009.45
2023-11-24T04:02:52.245Z,97992.55
2023-11-24T04:05:25.076Z,97984.88
2023-11-24T04:07:57.105Z,98000.95
2023-11-24T04:10:29.056Z,98010.00
2023-11-24T04:13:01.702Z,98005.73
2023-11-24T04:15:33.842Z,97992.08
2023-11-24T04:18:06.092Z,97992.05
2023-11-24T04:20:38.638Z,97988.48
2023-11-24T04:23:15.080Z,97976.52
2023-11-24T04:25:49.268Z,97977.40
2023-11-24T04:28:23.288Z,97965.95
2023-11-24T04:30:55.821Z,97966.11
2023-11-24T04:33:27.893Z,97964.20
2023-11-24T04:35:59.852Z,97962.66
2023-11-24T04:38:33.812Z,97969.49
2023-11-24T04:41:05.848Z,97981.67
2023-11-24T04:43:37.939Z,97991.59
2023-11-24T04:46:13.284Z,98002.66
2023-11-24T04:48:45.688Z,98006.15
2023-11-24T04:51:17.702Z,98028.36
2023-11-24T04:53:49.714Z,98016.01
2023-11-24T04:56:21.667Z,98009.30
2023-11-24T04:58:53.666Z,98039.59
2023-11-24T05:01:29.528Z,98022.14
2023-11-24T05:04:03.428Z,98032.27
2023-11-24T05:06:35.458Z,98035.55
2023-11-24T05:09:08.207Z,98058.85
2023-11-24T05:11:40.404Z,98049.50
2023-11-24T05:14:12.382Z,98057.27
2023-11-24T05:16:44.463Z,98048.50
2023-11-24T05:19:17.026Z,98037.16
2023-11-24T05:21:49.051Z,98016.15
2023-11-24T05:24:21.079Z,98025.14
2023-11-24T05:26:55.155Z,98037.67
2023-11-24T05:29:28.998Z,98050.27
2023-11-24T05:32:01.342Z,98036.39
2023-11-24T05:34:33.381Z,98025.48
2023-11-24T05:37:08.767Z,98027.66
2023-11-24T05:39:40.892Z,98026.66
2023-11-24T05:42:13.447Z,98029.54
2023-11-24T05:44:45.494Z,98025.24
2023-11-24T05:47:17.507Z,98020.77
2023-11-24T05:49:50.443Z,98019.60
2023-11-24T05:52:22.437Z,98020.23
2023-11-24T05:54:58.941Z,98017.79
2023-11-24T05:57:31.073Z,98016.20
2023-11-24T06:00:03.639Z,98017.73
2023-11-24T06:02:44.333Z,98019.28
2023-11-24T06:05:17.166Z,98023.91
2023-11-24T06:07:52.342Z,98027.36
2023-11-24T06:10:26.064Z,98032.45
2023-11-24T06:12:58.365Z,98031.42
2023-11-24T06:15:30.481Z,98036.66
2023-11-24T06:18:02.634Z,98037.80
2023-11-24T06:20:34.611Z,98033.69
2023-11-24T06:23:06.570Z,98047.96
2023-11-24T06:25:38.554Z,98048.84
2023-11-24T06:28:10.544Z,98052.42
2023-11-24T06:30:42.495Z,98053.85
2023-11-24T06:33:14.632Z,98061.86
2023-11-24T06:35:46.605Z,98060.44
2023-11-24T06:38:18.524Z,98065.80
2023-11-24T06:40:50.503Z,98072.23
2023-11-24T06:43:22.787Z,98076.11
2023-11-24T06:45:54.929Z,98080.70
2023-11-24T06:48:26.928Z,98080.20
2023-11-24T06:50:58.988Z,98087.45
2023-11-24T06:53:30.954Z,98087.79
2023-11-24T06:56:03.942Z,98091.15
2023-11-24T06:58:35.886Z,98090.95
2023-11-24T07:01:08.195Z,98090.15
2023-11-24T07:03:40.336Z,98088.44
2023-11-24T07:06:13.026Z,98086.52
2023-11-24T07:08:45.015Z,98083.70
2023-11-24T07:11:17.478Z,98083.75
2023-11-24T07:13:50.556Z,98088.08
2023-11-24T07:16:23.907Z,98095.92
2023-11-24T07:18:56.157Z,98098.86
2023-11-24T07:21:28.247Z,98093.25
2023-11-24T07:24:00.335Z,98087.59
2023-11-24T07:26:32.318Z,98089.86
2023-11-24T07:29:04.789Z,98093.95
2023-11-24T07:31:36.810Z,98102.35
2023-11-24T07:34:08.953Z,98103.91
2023-11-24T07:36:41.078Z,98095.37
2023-11-24T07:39:13.220Z,98092.48
2023-11-24T07:41:45.775Z,98096.05
2023-11-24T07:44:17.773Z,98095.95
2023-11-24T07:46:49.874Z,98106.45
2023-11-24T07:49:21.997Z,98107.86
2023-11-24T07:51:54.165Z,98108.99
2023-11-24T07:54:26.988Z,98105.95
2023-11-24T07:56:59.033Z,98102.52
2023-11-24T07:59:32.416Z,98099.27
2023-11-24T08:02:05.198Z,98095.20
2023-11-24T08:04:37.310Z,98093.41
2023-11-24T08:07:10.652Z,98095.53
2023-11-24T08:09:42.750Z,98102.26
2023-11-24T08:12:14.889Z,98107.23
2023-11-24T08:14:46.857Z,98106.00
2023-11-24T08:17:18.837Z,98108.77
2023-11-24T08:19:51.078Z,98106.35
2023-11-24T08:22:23.738Z,98099.66
2023-11-24T08:24:57.168Z,98099.61
2023-11-24T08:27:29.224Z,98096.24
2023-11-24T08:30:03.443Z,98098.37
2023-11-24T08:32:35.470Z,98097.89
2023-11-24T08:35:09.853Z,98101.70
2023-11-24T08:37:42.060Z,98101.64
2023-11-24T08:40:18.553Z,98096.41
2023-11-24T08:42:50.740Z,98094.74
2023-11-24T08:45:23.939Z,98090.45
2023-11-24T08:47:56.031Z,98092.91
2023-11-24T08:50:29.636Z,98087.14
2023-11-24T08:53:01.946Z,98083.92
2023-11-24T08:55:34.004Z,98083.77
2023-11-24T08:58:06.260Z,98085.39
2023-11-24T09:00:38.486Z,98085.77
2023-11-24T09:03:10.526Z,98078.77
2023-11-24T09:05:42.854Z,98077.91
2023-11-24T09:08:18.257Z,98068.38
2023-11-24T09:10:51.245Z,98059.73
2023-11-24T09:13:23.412Z,98055.88
2023-11-24T09:15:55.471Z,98047.73
2023-11-24T09:18:27.605Z,98040.64
2023-11-24T09:21:01.201Z,98034.37
2023-11-24T09:23:33.658Z,98028.09
2023-11-24T09:26:08.762Z,98027.25
2023-11-24T09:28:41.440Z,98021.80
2023-11-24T09:31:14.331Z,98015.52
2023-11-24T09:33:46.496Z,98007.55
2023-11-24T09:36:18.711Z,97994.29
2023-11-24T09:38:52.897Z,97990.64
2023-11-24T09:41:25.887Z,97984.55
2023-11-24T09:44:01.129Z,97978.10
2023-11-24T09:46:42.582Z,97975.96
2023-11-24T09:49:22.675Z,97969.14
2023-11-24T09:51:56.150Z,97973.45
2023-11-24T09:54:28.626Z,97972.09
2023-11-24T09:57:00.691Z,97969.00
2023-11-24T09:59:33.473Z,97967.98
2023-11-24T10:02:07.726Z,97966.23
2023-11-24T10:04:40.044Z,97958.66
2023-11-24T10:07:23.238Z,97953.67
2023-11-24T10:09:55.582Z,97950.57
2023-11-24T10:12:28.048Z,97939.77
2023-11-24T10:15:00.022Z,97931.03
2023-11-24T10:17:34.619Z,97931.21
2023-11-24T10:20:12.698Z,97930.17
2023-11-24T10:22:45.041Z,97918.91
2023-11-24T10:25:20.517Z,97927.80
2023-11-24T10:27:56.894Z,97913.14
2023-11-24T10:30:28.888Z,97907.18
2023-11-24T10:33:01.772Z,97916.06
2023-11-24T10:35:34.222Z,97917.39
2023-11-24T10:38:08.949Z,97916.54
2023-11-24T10:40:41.147Z,97910.21
2023-11-24T10:43:13.423Z,97910.89
2023-11-24T10:45:48.385Z,97909.00
2023-11-24T10:48:28.663Z,97906.59
2023-11-24T10:51:07.704Z,97903.02
2023-11-24T10:53:49.399Z,97903.85
2023-11-24T10:56:22.806Z,97895.80
2023-11-24T10:58:57.682Z,97900.04
2023-11-24T11:01:30.347Z,97903.80
2023-11-24T11:04:04.179Z,97898.65
2023-11-24T11:06:44.624Z,97902.56
2023-11-24T11:09:30.830Z,97897.77
2023-11-24T11:12:32.881Z,97895.69
2023-11-24T11:15:05.871Z,97890.41
2023-11-24T11:17:39.032Z,97885.95
2023-11-24T11:20:16.686Z,97876.92
2023-11-24T11:22:50.045Z,97872.13
2023-11-24T11:25:43.807Z,97868.02
2023-11-24T11:28:52.567Z,97859.80
2023-11-24T11:31:29.500Z,97853.00
2023-11-24T11:34:13.543Z,97851.27
2023-11-24T11:37:13.251Z,97852.30
2023-11-24T11:39:55.310Z,97849.77
2023-11-24T11:42:33.855Z,97854.59
2023-11-24T11:45:17.422Z,97853.39
2023-11-24T11:48:00.134Z,97847.06
2023-11-24T11:50:35.799Z,97852.02
2023-11-24T11:53:09.959Z,97853.21
2023-11-24T11:55:42.605Z,97851.48
2023-11-24T11:58:15.969Z,97849.95
2023-11-24T12:00:49.974Z,97842.94
2023-11-24T12:03:24.173Z,97842.08
2023-11-24T12:05:58.702Z,97839.57
2023-11-24T12:08:30.767Z,97834.32
2023-11-24T12:11:03.000Z,97828.75
2023-11-24T12:16:08.397Z,97815.73
2023-11-24T12:18:42.336Z,97813.72
2023-11-24T12:21:14.805Z,97817.20
2023-11-24T12:23:47.341Z,97818.96
2023-11-24T12:26:19.499Z,97826.36
2023-11-24T12:28:51.986Z,97824.15
2023-11-24T12:31:28.481Z,97817.15
2023-11-24T12:34:01.285Z,97814.75
2023-11-24T12:36:34.192Z,97805.50
2023-11-24T12:39:07.456Z,97797.95
2023-11-24T12:41:39.579Z,97791.93
2023-11-24T12:44:14.541Z,97776.84
2023-11-24T12:46:46.927Z,97778.17
2023-11-24T12:49:19.144Z,97774.55
2023-11-24T12:51:51.347Z,97774.52
2023-11-24T12:54:23.434Z,97766.59
2023-11-24T12:56:55.444Z,97770.00
2023-11-24T12:59:27.517Z,97776.80
2023-11-24T13:01:59.541Z,97782.05
2023-11-24T13:04:31.881Z,97779.09
2023-11-24T13:07:05.744Z,97781.27
2023-11-24T13:09:39.368Z,97784.48
2023-11-24T13:12:18.191Z,97787.36
2023-11-24T13:14:51.178Z,97781.70
2023-11-24T13:17:23.355Z,97771.83
2023-11-24T13:19:55.831Z,97762.92
2023-11-24T13:22:27.917Z,97761.00
2023-11-24T13:25:00.300Z,97756.17
2023-11-24T13:27:34.172Z,97752.92
2023-11-24T13:30:11.033Z,97750.24
2023-11-24T13:32:43.838Z,97748.39
2023-11-24T13:35:17.596Z,97742.45
2023-11-24T13:37:51.132Z,97746.36
2023-11-24T13:40:27.945Z,97752.53
2023-11-24T13:43:00.580Z,97753.86
2023-11-24T13:45:36.212Z,97750.45
2023-11-24T13:48:08.557Z,97749.64
2023-11-24T13:50:41.083Z,97750.67
2023-11-24T13:53:13.319Z,97749.31
2023-11-24T13:55:45.650Z,97744.91
2023-11-24T13:58:18.509Z,97744.09
2023-11-24T14:00:53.029Z,97743.77
2023-11-24T14:03:25.465Z,97745.46
2023-11-24T14:05:57.798Z,97752.55
2023-11-24T14:08:30.117Z,97755.80
2023-11-24T14:11:04.032Z,97757.15
2023-11-24T14:13:37.139Z,97756.27
2023-11-24T14:16:10.180Z,97756.38
2023-11-24T14:18:42.628Z,97758.02
2023-11-24T14:21:14.627Z,97756.73
2023-11-24T14:23:46.706Z,97756.21
2023-11-24T14:26:19.307Z,97749.85
2023-11-24T14:28:51.269Z,97750.50
2023-11-24T14:31:23.397Z,97748.24
2023-11-24T14:33:55.586Z,97744.98
2023-11-24T14:36:28.110Z,97746.13
2023-11-24T14:39:00.824Z,97744.00
2023-11-24T14:41:33.240Z,97742.58
2023-11-24T14:44:05.426Z,97741.86
2023-11-24T14:46:37.698Z,97736.86
2023-11-24T14:49:10.630Z,97741.71
2023-11-24T14:51:42.617Z,97743.35
2023-11-24T14:54:15.189Z,97741.95
2023-11-24T14:56:49.712Z,97739.51
2023-11-24T14:59:22.119Z,97751.86
2023-11-24T15:01:59.902Z,97757.27
2023-11-24T15:04:33.285Z,97763.88
2023-11-24T15:07:09.041Z,97763.45
2023-11-24T15:09:44.681Z,97753.98
2023-11-24T15:12:16.922Z,97755.42
2023-11-24T15:14:49.280Z,97761.61
2023-11-24T15:17:21.335Z,97759.17
2023-11-24T15:19:55.371Z,97758.77
2023-11-24T15:22:28.531Z,97754.66
2023-11-24T15:25:00.904Z,97754.14
2023-11-24T15:27:33.096Z,97757.95
2023-11-24T15:30:06.323Z,97757.45
2023-11-24T15:32:38.383Z,97759.83
2023-11-24T15:35:11.079Z,97757.86
2023-11-24T15:37:43.104Z,97762.58
2023-11-24T15:40:21.978Z,97759.85
2023-11-24T15:42:56.333Z,97761.02
2023-11-24T15:45:29.833Z,97763.40
2023-11-24T15:48:07.784Z,97767.29
2023-11-24T15:50:42.181Z,97761.43
2023-11-24T15:53:15.061Z,97762.05
2023-11-24T15:55:48.156Z,97762.98
2023-11-24T15:58:24.836Z,97765.93
2023-11-24T16:00:58.455Z,97763.98
2023-11-24T16:03:31.659Z,97764.56
2023-11-24T16:06:08.261Z,97756.52
2023-11-24T16:08:46.117Z,97751.35
2023-11-24T16:11:26.070Z,97754.60
2023-11-24T16:13:59.423Z,97759.46
2023-11-24T16:16:32.818Z,97760.73
2023-11-24T16:19:04.998Z,97760.42
2023-11-24T16:21:37.497Z,97759.83
2023-11-24T16:24:10.683Z,97752.90
2023-11-24T16:26:42.863Z,97748.50
2023-11-24T16:29:15.540Z,97743.13
2023-11-24T16:31:49.348Z,97743.92
2023-11-24T16:34:24.302Z,97745.41
2023-11-24T16:36:57.726Z,97749.55
2023-11-24T16:39:31.824Z,97749.16
2023-11-24T16:42:03.848Z,97749.23
2023-11-24T16:44:39.550Z,97748.85
2023-11-24T16:47:15.111Z,97749.27
2023-11-24T16:49:47.563Z,97749.36
2023-11-24T16:52:19.567Z,97748.56
2023-11-24T16:54:51.795Z,97745.59
2023-11-24T16:57:26.950Z,97745.39
2023-11-24T16:59:59.039Z,97750.24
2023-11-24T17:02:31.761Z,97753.91
2023-11-24T17:05:04.620Z,97752.52
2023-11-24T17:07:36.964Z,97744.41
2023-11-24T17:10:11.312Z,97739.08
2023-11-24T17:12:43.344Z,97733.96
2023-11-24T17:15:17.735Z,97728.69
2023-11-24T17:17:49.760Z,97718.84
2023-11-24T17:20:21.919Z,97712.79
2023-11-24T17:22:54.662Z,97718.09
2023-11-24T17:25:35.175Z,97717.32
2023-11-24T17:28:09.360Z,97719.60
2023-11-24T17:30:41.535Z,97718.11
2023-11-24T17:33:13.788Z,97719.23
2023-11-24T17:35:45.897Z,97724.24
2023-11-24T17:38:22.083Z,97726.09
2023-11-24T17:40:52.707Z,97726.38
2023-11-24T17:43:24.665Z,97726.80
2023-11-24T17:45:57.795Z,97728.73
2023-11-24T17:48:30.047Z,97737.75
2023-11-24T17:51:03.736Z,97743.15
2023-11-24T17:53:37.031Z,97747.39
2023-11-24T17:56:10.019Z,97743.78
2023-11-24T17:58:42.071Z,97744.59
2023-11-24T18:01:14.329Z,97741.95
2023-11-24T18:03:47.408Z,97740.46
2023-11-24T18:06:20.118Z,97744.21
2023-11-24T18:08:52.302Z,97745.59
2023-11-24T18:11:24.390Z,97743.45
2023-11-24T18:13:57.138Z,97753.25
2023-11-24T18:16:29.930Z,97763.80
2023-11-24T18:19:02.198Z,97770.64
2023-11-24T18:21:34.621Z,97772.75
2023-11-24T18:24:08.260Z,97773.30
2023-11-24T18:26:41.867Z,97776.05
2023-11-24T18:29:15.290Z,97780.05
2023-11-24T18:31:49.160Z,97781.16
2023-11-24T18:34:28.347Z,97784.27
2023-11-24T18:37:00.672Z,97786.48
2023-11-24T18:39:33.432Z,97789.30
2023-11-24T18:42:07.327Z,97785.64
2023-11-24T18:44:40.311Z,97783.79
2023-11-24T18:47:19.281Z,97782.94
2023-11-24T18:49:52.212Z,97773.75
2023-11-24T18:52:24.676Z,97774.91
2023-11-24T18:54:57.651Z,97778.59
2023-11-24T18:57:30.052Z,97776.92
2023-11-24T19:00:08.193Z,97770.66
2023-11-24T19:02:40.371Z,97762.85
2023-11-24T19:05:14.808Z,97761.35
2023-11-24T19:07:47.209Z,97756.64
2023-11-24T19:10:20.230Z,97753.80
2023-11-24T19:12:55.241Z,97758.55
2023-11-24T19:15:28.715Z,97762.31
2023-11-24T19:18:00.957Z,97762.44
2023-11-24T19:20:33.654Z,97758.79
2023-11-24T19:23:05.949Z,97756.52
2023-11-24T19:25:38.366Z,97753.54
2023-11-24T19:28:14.658Z,97749.02
2023-11-24T19:30:51.747Z,97746.95
2023-11-24T19:33:24.351Z,97742.61
2023-11-24T19:35:57.001Z,97745.44
2023-11-24T19:38:29.340Z,97747.24
2023-11-24T19:41:01.677Z,97746.04
2023-11-24T19:43:34.905Z,97746.90
2023-11-24T19:46:07.960Z,97745.55
2023-11-24T19:48:40.277Z,97742.23
2023-11-24T19:51:12.702Z,97740.63
2023-11-24T19:53:44.857Z,97741.14
2023-11-24T19:56:18.306Z,97740.58
2023-11-24T19:58:50.575Z,97732.09
2023-11-24T20:01:27.574Z,97734.77
2023-11-24T20:03:59.953Z,97739.59
2023-11-24T20:06:33.122Z,97737.39
2023-11-24T20:09:11.230Z,97742.23
2023-11-24T20:11:44.134Z,97743.48
2023-11-24T20:14:18.669Z,97732.70
2023-11-24T20:16:52.770Z,97733.08
2023-11-24T20:19:25.111Z,97737.81
2023-11-24T20:21:57.450Z,97741.98
2023-11-24T20:24:31.071Z,97741.13
2023-11-24T20:27:03.287Z,97736.52
2023-11-24T20:29:35.482Z,97731.31
2023-11-24T20:32:08.678Z,97736.52
2023-11-24T20:34:40.986Z,97743.15
2023-11-24T20:37:14.407Z,97746.45
2023-11-24T20:39:47.879Z,97741.29
2023-11-24T20:42:20.154Z,97737.93
2023-11-24T20:44:53.021Z,97736.06
2023-11-24T20:47:25.221Z,97733.11
2023-11-24T20:49:57.461Z,97731.92
2023-11-24T20:52:29.938Z,97736.48
2023-11-24T20:55:02.196Z,97734.58
2023-11-24T20:57:34.337Z,97729.80
2023-11-24T21:00:12.521Z,97729.95
2023-11-24T21:02:46.225Z,97728.30
2023-11-24T21:05:19.664Z,97725.63
2023-11-24T21:07:52.548Z,97731.40
2023-11-24T21:10:25.091Z,97724.27
2023-11-24T21:12:57.294Z,97719.52
2023-11-24T21:15:30.004Z,97719.34
2023-11-24T21:18:06.502Z,97714.60
2023-11-24T21:20:38.817Z,97712.10
2023-11-24T21:23:13.243Z,97708.56
2023-11-24T21:25:45.607Z,97709.95
2023-11-24T21:28:20.260Z,97711.01
2023-11-24T21:30:52.466Z,97710.14
2023-11-24T21:33:24.659Z,97715.92
2023-11-24T21:35:56.810Z,97712.89
2023-11-24T21:38:30.353Z,97709.19
2023-11-24T21:41:02.515Z,97706.53
2023-11-24T21:43:34.747Z,97705.05
2023-11-24T21:46:07.196Z,97706.96
2023-11-24T21:48:39.603Z,97704.45
2023-11-24T21:51:11.743Z,97703.99
2023-11-24T21:53:44.283Z,97704.08
2023-11-24T21:56:24.690Z,97701.26
2023-11-24T21:58:57.185Z,97701.60
2023-11-24T22:01:30.223Z,97698.91
2023-11-24T22:04:02.577Z,97700.83
2023-11-24T22:06:37.290Z,97695.63
2023-11-24T22:09:09.524Z,97695.97
2023-11-24T22:11:41.666Z,97704.33
2023-11-24T22:14:13.804Z,97702.84
2023-11-24T22:16:46.126Z,97701.83
2023-11-24T22:19:20.536Z,97699.78
2023-11-24T22:21:53.945Z,97700.29
2023-11-24T22:24:26.074Z,97691.79
2023-11-24T22:27:02.270Z,97685.46
2023-11-24T22:29:33.106Z,97689.50
2023-11-24T22:32:06.926Z,97685.91
2023-11-24T22:34:39.228Z,97684.56
2023-11-24T22:37:12.414Z,97686.29
2023-11-24T22:39:44.532Z,97682.21
2023-11-24T22:42:16.582Z,97677.66
2023-11-24T22:44:51.073Z,97675.44
2023-11-24T22:47:25.502Z,97676.26
2023-11-24T22:49:57.600Z,97674.41
2023-11-24T22:52:30.070Z,97673.91
2023-11-24T22:55:02.592Z,97672.36
2023-11-24T22:57:35.062Z,97672.24
2023-11-24T23:00:30.051Z,97676.55
2023-11-24T23:03:02.585Z,97676.41
2023-11-24T23:05:35.316Z,97676.61
2023-11-24T23:08:08.046Z,97677.70
2023-11-24T23:10:40.077Z,97664.80
2023-11-24T23:13:12.153Z,97661.61
2023-11-24T23:15:44.887Z,97659.23
2023-11-24T23:18:17.686Z,97652.13
2023-11-24T23:20:50.647Z,97647.58
2023-11-24T23:23:27.879Z,97641.48
2023-11-24T23:25:59.788Z,97638.09
2023-11-24T23:28:31.999Z,97638.54
2023-11-24T23:31:07.102Z,97635.75
2023-11-24T23:33:40.002Z,97627.86
2023-11-24T23:36:14.505Z,97631.84
2023-11-24T23:38:47.942Z,97628.93
2023-11-24T23:41:22.593Z,97626.70
2023-11-24T23:43:55.089Z,97630.05
2023-11-24T23:46:27.230Z,97630.86
2023-11-24T23:49:00.141Z,97631.17
2023-11-24T23:51:32.395Z,97633.72
2023-11-24T23:54:04.774Z,97629.48
2023-11-24T23:56:36.731Z,97628.31
2023-11-24T23:59:08.949Z,97623.22
